createdAt,value
2022-11-20T00:01:34.694Z,86.33
2022-11-20T00:04:02.852Z,86.39
2022-11-20T00:06:31.290Z,86.43
2022-11-20T00:09:01.470Z,86.51
2022-11-20T00:11:31.451Z,86.40
2022-11-20T00:14:02.054Z,86.39
2022-11-20T00:16:32.776Z,86.36
2022-11-20T00:19:01.151Z,86.39
2022-11-20T00:21:31.097Z,86.19
2022-11-20T00:23:59.781Z,86.40
2022-11-20T00:26:29.490Z,86.39
2022-11-20T00:29:01.104Z,86.48
2022-11-20T00:31:30.428Z,86.41
2022-11-20T00:33:58.509Z,86.40
2022-11-20T00:36:29.041Z,86.38
2022-11-20T00:38:58.926Z,86.34
2022-11-20T00:41:30.180Z,86.37
2022-11-20T00:43:58.498Z,86.23
2022-11-20T00:46:28.669Z,86.27
2022-11-20T00:48:57.862Z,86.42
2022-11-20T00:51:28.008Z,86.16
2022-11-20T00:53:57.875Z,86.15
2022-11-20T00:56:25.950Z,86.22
2022-11-20T00:58:54.017Z,86.40
2022-11-20T01:01:30.217Z,86.25
2022-11-20T01:04:00.639Z,86.28
2022-11-20T01:06:32.297Z,86.23
2022-11-20T01:09:04.258Z,86.36
2022-11-20T01:11:35.236Z,86.26
2022-11-20T01:14:05.875Z,86.58
2022-11-20T01:16:37.239Z,86.37
2022-11-20T01:19:07.638Z,86.72
2022-11-20T01:21:38.930Z,86.50
2022-11-20T01:24:09.468Z,86.69
2022-11-20T01:26:39.925Z,86.66
2022-11-20T01:29:11.651Z,86.55
2022-11-20T01:31:39.661Z,86.45
2022-11-20T01:34:13.333Z,86.72
2022-11-20T01:36:42.523Z,86.73
2022-11-20T01:39:25.623Z,86.64
2022-11-20T01:42:14.101Z,86.57
2022-11-20T01:44:58.574Z,86.59
2022-11-20T01:47:32.720Z,86.60
2022-11-20T01:50:14.901Z,86.59
2022-11-20T01:52:57.785Z,86.47
2022-11-20T01:55:30.789Z,86.69
2022-11-20T01:58:00.079Z,86.71
2022-11-20T02:00:28.278Z,86.75
2022-11-20T02:03:04.398Z,86.77
2022-11-20T02:05:35.195Z,86.67
2022-11-20T02:08:05.752Z,86.69
2022-11-20T02:10:34.972Z,86.70
2022-11-20T02:13:22.671Z,86.71
2022-11-20T02:15:50.750Z,86.61
2022-11-20T02:18:21.293Z,86.62
2022-11-20T02:20:54.888Z,86.46
2022-11-20T02:23:32.095Z,86.64
2022-11-20T02:26:04.250Z,86.72
2022-11-20T02:28:32.555Z,86.61
2022-11-20T02:31:01.798Z,86.57
2022-11-20T02:33:29.897Z,86.79
2022-11-20T02:35:57.972Z,86.88
2022-11-20T02:38:26.115Z,86.63
2022-11-20T02:40:55.714Z,86.56
2022-11-20T02:43:24.536Z,86.76
2022-11-20T02:45:52.682Z,86.76
2022-11-20T02:48:20.734Z,86.67
2022-11-20T02:50:48.794Z,86.62
2022-11-20T02:53:16.835Z,86.54
2022-11-20T02:55:44.935Z,86.60
2022-11-20T02:58:13.011Z,86.66
2022-11-20T03:00:41.080Z,86.60
2022-11-20T03:03:09.141Z,86.62
2022-11-20T03:05:37.216Z,86.70
2022-11-20T03:08:05.542Z,86.66
2022-11-20T03:10:33.654Z,86.71
2022-11-20T03:13:01.652Z,86.60
2022-11-20T03:15:32.140Z,86.79
2022-11-20T03:18:00.247Z,86.56
2022-11-20T03:20:28.286Z,86.54
2022-11-20T03:22:56.695Z,86.73
2022-11-20T03:25:25.301Z,86.80
2022-11-20T03:27:53.349Z,86.71
2022-11-20T03:30:23.931Z,86.58
2022-11-20T03:32:55.124Z,86.68
2022-11-20T03:35:23.375Z,86.61
2022-11-20T03:37:52.568Z,86.77
2022-11-20T03:40:20.638Z,86.59
2022-11-20T03:42:48.900Z,86.72
2022-11-20T03:45:18.679Z,86.74
2022-11-20T03:47:47.097Z,86.90
2022-11-20T03:50:15.399Z,86.88
2022-11-20T03:52:43.715Z,87.00
2022-11-20T03:55:12.349Z,86.96
2022-11-20T03:57:40.537Z,86.78
2022-11-20T04:00:09.314Z,86.60
2022-11-20T04:02:37.308Z,86.63
2022-11-20T04:05:05.669Z,86.63
2022-11-20T04:07:35.120Z,86.64
2022-11-20T04:10:03.643Z,86.68
2022-11-20T04:12:34.987Z,86.69
2022-11-20T04:15:03.267Z,86.93
2022-11-20T04:17:31.439Z,86.93
2022-11-20T04:20:00.349Z,86.87
2022-11-20T04:22:28.499Z,86.90
2022-11-20T04:24:56.622Z,86.78
2022-11-20T04:27:24.721Z,86.93
2022-11-20T04:29:52.810Z,86.84
2022-11-20T04:32:20.887Z,87.01
2022-11-20T04:34:48.907Z,87.15
2022-11-20T04:37:17.030Z,86.96
2022-11-20T04:39:45.100Z,86.67
2022-11-20T04:42:31.455Z,86.81
2022-11-20T04:44:59.603Z,86.94
2022-11-20T04:47:27.857Z,87.03
2022-11-20T04:49:56.025Z,86.97
2022-11-20T04:52:24.164Z,86.91
2022-11-20T04:54:53.990Z,86.92
2022-11-20T04:57:22.347Z,86.91
2022-11-20T04:59:50.710Z,86.87
2022-11-20T05:02:19.085Z,86.83
2022-11-20T05:04:47.216Z,86.90
2022-11-20T05:07:15.778Z,86.80
2022-11-20T05:09:43.894Z,87.11
2022-11-20T05:12:11.917Z,87.20
2022-11-20T05:14:40.132Z,87.24
2022-11-20T05:17:11.437Z,87.07
2022-11-20T05:19:39.456Z,86.98
2022-11-20T05:22:07.493Z,86.86
2022-11-20T05:24:35.943Z,86.94
2022-11-20T05:27:04.146Z,86.93
2022-11-20T05:29:32.147Z,86.95
2022-11-20T05:32:00.168Z,87.02
2022-11-20T05:34:29.213Z,86.78
2022-11-20T05:36:57.311Z,86.98
2022-11-20T05:39:25.293Z,87.02
2022-11-20T05:42:13.349Z,87.02
2022-11-20T05:44:41.438Z,87.04
2022-11-20T05:47:09.557Z,87.17
2022-11-20T05:49:37.571Z,87.31
2022-11-20T05:52:05.591Z,87.09
2022-11-20T05:54:33.672Z,87.14
2022-11-20T05:57:01.690Z,86.98
2022-11-20T05:59:29.934Z,86.95
2022-11-20T06:01:57.942Z,87.07
2022-11-20T06:04:26.325Z,87.13
2022-11-20T06:06:54.352Z,87.14
2022-11-20T06:09:23.034Z,86.97
2022-11-20T06:11:51.305Z,87.02
2022-11-20T06:14:19.408Z,87.17
2022-11-20T06:16:47.452Z,86.94
2022-11-20T06:19:16.313Z,87.10
2022-11-20T06:21:44.396Z,87.08
2022-11-20T06:24:12.876Z,87.08
2022-11-20T06:26:41.093Z,86.87
2022-11-20T06:29:09.308Z,87.03
2022-11-20T06:31:38.908Z,87.05
2022-11-20T06:34:07.896Z,87.12
2022-11-20T06:36:36.058Z,87.07
2022-11-20T06:39:04.708Z,86.92
2022-11-20T06:41:32.832Z,87.26
2022-11-20T06:44:01.391Z,87.06
2022-11-20T06:46:29.491Z,87.02
2022-11-20T06:48:57.957Z,87.20
2022-11-20T06:51:26.032Z,87.08
2022-11-20T06:53:54.409Z,87.37
2022-11-20T06:56:22.460Z,87.23
2022-11-20T06:58:50.490Z,87.30
2022-11-20T07:01:18.672Z,87.14
2022-11-20T07:03:54.178Z,87.41
2022-11-20T07:06:22.836Z,87.48
2022-11-20T07:08:53.789Z,87.22
2022-11-20T07:11:21.907Z,87.41
2022-11-20T07:13:50.670Z,87.39
2022-11-20T07:16:18.940Z,87.74
2022-11-20T07:18:50.505Z,87.45
2022-11-20T07:21:19.537Z,87.37
2022-11-20T07:23:47.703Z,87.46
2022-11-20T07:26:15.971Z,87.98
2022-11-20T07:28:47.113Z,87.93
2022-11-20T07:31:19.134Z,87.98
2022-11-20T07:33:47.939Z,88.23
2022-11-20T07:36:16.060Z,88.09
2022-11-20T07:38:44.126Z,87.89
2022-11-20T07:41:12.161Z,88.08
2022-11-20T07:43:41.584Z,87.73
2022-11-20T07:46:10.078Z,87.57
2022-11-20T07:48:38.188Z,88.23
2022-11-20T07:51:06.343Z,88.50
2022-11-20T07:53:34.569Z,88.65
2022-11-20T07:56:04.258Z,88.78
2022-11-20T07:58:34.116Z,88.33
2022-11-20T08:01:07.049Z,88.45
2022-11-20T08:03:35.839Z,88.32
2022-11-20T08:06:04.461Z,88.19
2022-11-20T08:08:34.066Z,88.13
2022-11-20T08:11:21.385Z,88.04
2022-11-20T08:14:08.018Z,87.89
2022-11-20T08:16:35.972Z,87.84
2022-11-20T08:19:04.224Z,88.04
2022-11-20T08:21:37.831Z,88.22
2022-11-20T08:24:07.133Z,88.01
2022-11-20T08:26:36.297Z,88.24
2022-11-20T08:29:05.601Z,87.55
2022-11-20T08:31:34.589Z,88.12
2022-11-20T08:34:22.625Z,88.11
2022-11-20T08:36:50.707Z,87.77
2022-11-20T08:39:18.923Z,88.06
2022-11-20T08:41:47.023Z,87.86
2022-11-20T08:44:15.043Z,87.81
2022-11-20T08:46:44.834Z,87.68
2022-11-20T08:49:14.858Z,87.00
2022-11-20T08:51:43.801Z,86.99
2022-11-20T08:54:12.049Z,87.33
2022-11-20T08:56:40.523Z,87.39
2022-11-20T08:59:43.798Z,87.46
2022-11-20T09:01:56.726Z,87.53
2022-11-20T09:04:24.861Z,87.33
2022-11-20T09:06:53.138Z,86.97
2022-11-20T09:09:21.791Z,87.08
2022-11-20T09:11:51.093Z,86.97
2022-11-20T09:14:19.239Z,87.08
2022-11-20T09:16:47.962Z,87.06
2022-11-20T09:22:04.395Z,86.76
2022-11-20T09:24:32.777Z,86.71
2022-11-20T09:27:03.422Z,86.96
2022-11-20T09:29:31.494Z,86.60
2022-11-20T09:31:59.726Z,86.76
2022-11-20T09:34:27.742Z,86.72
2022-11-20T09:36:55.802Z,86.82
2022-11-20T09:39:24.157Z,86.65
2022-11-20T09:42:26.837Z,86.45
2022-11-20T09:45:29.245Z,86.46
2022-11-20T09:48:30.712Z,86.61
2022-11-20T09:51:04.429Z,86.42
2022-11-20T09:53:51.538Z,86.40
2022-11-20T09:56:22.848Z,86.23
2022-11-20T09:58:54.053Z,85.87
2022-11-20T10:01:30.338Z,86.05
2022-11-20T10:04:05.710Z,86.06
2022-11-20T10:06:38.552Z,86.18
2022-11-20T10:09:06.763Z,85.75
2022-11-20T10:12:12.532Z,85.94
2022-11-20T10:14:50.203Z,86.19
2022-11-20T10:17:51.337Z,85.90
2022-11-20T10:20:43.866Z,86.18
2022-11-20T10:23:36.080Z,86.47
2022-11-20T10:26:16.410Z,86.53
2022-11-20T10:28:58.736Z,86.55
2022-11-20T10:32:01.200Z,86.48
2022-11-20T10:34:38.291Z,86.12
2022-11-20T10:37:17.205Z,86.22
2022-11-20T10:39:52.086Z,86.20
2022-11-20T10:42:32.317Z,85.85
2022-11-20T10:45:16.921Z,86.40
2022-11-20T10:47:45.482Z,86.22
2022-11-20T10:50:22.416Z,85.98
2022-11-20T10:53:00.821Z,86.11
2022-11-20T10:55:40.312Z,86.13
2022-11-20T10:58:15.721Z,85.87
2022-11-20T11:00:44.191Z,85.77
2022-11-20T11:03:32.624Z,85.78
2022-11-20T11:06:09.241Z,86.30
2022-11-20T11:08:41.259Z,86.01
2022-11-20T11:11:25.693Z,86.17
2022-11-20T11:13:53.767Z,86.13
2022-11-20T11:16:28.178Z,86.42
2022-11-20T11:19:15.583Z,85.88
2022-11-20T11:22:00.497Z,86.23
2022-11-20T11:24:42.067Z,85.86
2022-11-20T11:27:18.996Z,85.92
2022-11-20T11:29:48.140Z,86.41
2022-11-20T11:32:21.674Z,86.69
2022-11-20T11:35:08.080Z,86.21
2022-11-20T11:37:38.910Z,86.68
2022-11-20T11:40:27.316Z,86.08
2022-11-20T11:43:02.345Z,86.50
2022-11-20T11:45:30.857Z,86.72
2022-11-20T11:48:04.453Z,86.55
2022-11-20T11:50:32.709Z,86.54
2022-11-20T11:53:29.624Z,86.22
2022-11-20T11:55:59.611Z,86.74
2022-11-20T11:58:51.367Z,86.17
2022-11-20T12:01:52.073Z,86.16
2022-11-20T12:04:53.070Z,86.16
2022-11-20T12:07:51.604Z,86.18
2022-11-20T12:10:35.962Z,86.29
2022-11-20T12:13:16.389Z,86.58
2022-11-20T12:15:47.680Z,85.94
2022-11-20T12:18:19.577Z,86.29
2022-11-20T12:21:19.373Z,85.95
2022-11-20T12:24:02.961Z,85.92
2022-11-20T12:27:08.974Z,85.66
2022-11-20T12:29:55.531Z,86.16
2022-11-20T12:32:52.110Z,85.83
2022-11-20T12:35:58.270Z,86.11
2022-11-20T12:38:51.103Z,85.56
2022-11-20T12:42:03.861Z,85.76
2022-11-20T12:45:06.279Z,86.02
2022-11-20T12:48:00.676Z,85.69
2022-11-20T12:50:28.693Z,86.06
2022-11-20T12:53:05.742Z,85.78
2022-11-20T12:55:43.588Z,85.84
2022-11-20T12:58:20.857Z,85.62
2022-11-20T13:01:01.590Z,85.46
2022-11-20T13:03:57.383Z,85.71
2022-11-20T13:06:26.849Z,85.71
2022-11-20T13:08:57.123Z,85.97
2022-11-20T13:11:43.293Z,85.31
2022-11-20T13:14:33.083Z,85.41
2022-11-20T13:17:07.039Z,85.35
2022-11-20T13:19:36.063Z,85.18
2022-11-20T13:22:04.658Z,85.14
2022-11-20T13:24:33.882Z,84.98
2022-11-20T13:27:14.012Z,85.53
2022-11-20T13:29:46.827Z,85.42
2022-11-20T13:32:14.848Z,84.92
2022-11-20T13:34:57.564Z,85.33
2022-11-20T13:37:31.400Z,85.28
2022-11-20T13:40:25.607Z,85.14
2022-11-20T13:42:58.920Z,85.20
2022-11-20T13:45:30.381Z,85.12
2022-11-20T13:48:03.217Z,85.00
2022-11-20T13:50:37.214Z,84.88
2022-11-20T13:53:13.994Z,85.33
2022-11-20T13:56:00.093Z,85.14
2022-11-20T13:58:56.290Z,85.34
2022-11-20T14:01:26.221Z,85.22
2022-11-20T14:04:10.384Z,85.23
2022-11-20T14:06:47.920Z,85.65
2022-11-20T14:09:32.015Z,85.48
2022-11-20T14:12:00.593Z,85.63
2022-11-20T14:14:31.347Z,85.79
2022-11-20T14:17:07.959Z,85.71
2022-11-20T14:19:38.209Z,85.23
2022-11-20T14:22:25.115Z,85.44
2022-11-20T14:25:28.917Z,85.57
2022-11-20T14:27:59.762Z,85.76
2022-11-20T14:30:37.427Z,85.72
2022-11-20T14:33:06.026Z,85.55
2022-11-20T14:35:41.799Z,85.61
2022-11-20T14:38:14.958Z,85.58
2022-11-20T14:40:43.520Z,85.63
2022-11-20T14:43:24.903Z,85.56
2022-11-20T14:46:10.927Z,85.49
2022-11-20T14:48:48.652Z,85.63
2022-11-20T14:51:43.397Z,85.68
2022-11-20T14:54:12.696Z,85.53
2022-11-20T14:56:40.838Z,85.61
2022-11-20T14:59:10.727Z,85.55
2022-11-20T15:01:39.142Z,85.58
2022-11-20T15:04:07.305Z,85.23
2022-11-20T15:06:38.628Z,85.55
2022-11-20T15:09:18.385Z,85.64
2022-11-20T15:11:59.474Z,85.85
2022-11-20T15:14:30.011Z,85.77
2022-11-20T15:16:58.430Z,85.73
2022-11-20T15:19:27.911Z,85.54
2022-11-20T15:21:56.205Z,85.71
2022-11-20T15:24:24.459Z,85.75
2022-11-20T15:26:52.744Z,85.68
2022-11-20T15:29:24.376Z,85.64
2022-11-20T15:31:53.708Z,85.60
2022-11-20T15:34:22.092Z,85.65
2022-11-20T15:36:51.049Z,85.66
2022-11-20T15:39:19.144Z,85.67
2022-11-20T15:41:47.679Z,85.70
2022-11-20T15:44:15.805Z,85.71
2022-11-20T15:46:46.130Z,85.68
2022-11-20T15:49:16.432Z,85.66
2022-11-20T15:51:47.635Z,85.80
2022-11-20T15:54:22.255Z,85.74
2022-11-20T15:56:54.547Z,86.04
2022-11-20T15:59:22.714Z,85.84
2022-11-20T16:01:50.842Z,85.98
2022-11-20T16:04:19.618Z,85.89
2022-11-20T16:06:47.797Z,86.12
2022-11-20T16:09:16.150Z,86.13
2022-11-20T16:11:44.211Z,86.27
2022-11-20T16:14:30.879Z,86.24
2022-11-20T16:16:58.927Z,86.26
2022-11-20T16:19:26.961Z,86.16
2022-11-20T16:22:01.194Z,86.26
2022-11-20T16:24:32.027Z,86.20
2022-11-20T16:27:00.758Z,86.34
2022-11-20T16:29:28.788Z,86.34
2022-11-20T16:31:57.931Z,86.50
2022-11-20T16:34:26.231Z,86.56
2022-11-20T16:36:56.157Z,86.51
2022-11-20T16:39:26.271Z,86.55
2022-11-20T16:41:54.338Z,86.43
2022-11-20T16:44:22.680Z,86.41
2022-11-20T16:46:51.029Z,86.54
2022-11-20T16:49:19.326Z,86.55
2022-11-20T16:51:48.195Z,86.54
2022-11-20T16:54:20.735Z,86.76
2022-11-20T16:56:51.274Z,86.68
2022-11-20T16:59:20.145Z,86.68
2022-11-20T17:01:48.338Z,86.77
2022-11-20T17:04:17.426Z,86.61
2022-11-20T17:06:45.690Z,86.77
2022-11-20T17:09:14.374Z,86.88
2022-11-20T17:11:45.123Z,86.90
2022-11-20T17:14:13.215Z,86.73
2022-11-20T17:16:41.617Z,87.09
2022-11-20T17:19:09.785Z,87.03
2022-11-20T17:21:38.306Z,87.14
2022-11-20T17:24:12.105Z,86.95
2022-11-20T17:26:45.083Z,87.05
2022-11-20T17:29:18.162Z,87.04
2022-11-20T17:31:46.583Z,87.14
2022-11-20T17:34:15.679Z,87.22
2022-11-20T17:36:48.500Z,87.25
2022-11-20T17:39:18.011Z,87.22
2022-11-20T17:42:07.997Z,87.08
2022-11-20T17:44:36.232Z,87.18
2022-11-20T17:47:04.529Z,87.07
2022-11-20T17:49:32.734Z,86.94
2022-11-20T17:52:00.784Z,87.27
2022-11-20T17:54:28.853Z,87.21
2022-11-20T17:57:15.886Z,87.11
2022-11-20T17:59:44.064Z,87.29
2022-11-20T18:02:12.271Z,87.52
2022-11-20T18:04:40.397Z,87.33
2022-11-20T18:07:08.749Z,87.42
2022-11-20T18:09:36.875Z,87.49
2022-11-20T18:12:05.424Z,87.52
2022-11-20T18:14:34.742Z,87.38
2022-11-20T18:17:09.257Z,87.59
2022-11-20T18:20:26.784Z,87.45
2022-11-20T18:22:43.813Z,87.52
2022-11-20T18:25:12.453Z,87.51
2022-11-20T18:27:40.605Z,87.42
2022-11-20T18:30:09.279Z,87.43
2022-11-20T18:32:40.825Z,87.57
2022-11-20T18:35:11.594Z,87.59
2022-11-20T18:37:39.870Z,87.47
2022-11-20T18:40:08.861Z,87.52
2022-11-20T18:42:58.463Z,87.92
2022-11-20T18:45:26.493Z,87.88
2022-11-20T18:47:54.455Z,87.62
2022-11-20T18:50:23.133Z,87.68
2022-11-20T18:52:51.429Z,87.62
2022-11-20T18:55:19.520Z,87.80
2022-11-20T18:57:47.705Z,87.78
2022-11-20T19:00:16.106Z,87.71
2022-11-20T19:02:44.278Z,87.73
2022-11-20T19:05:14.191Z,87.57
2022-11-20T19:07:43.235Z,87.76
2022-11-20T19:10:12.377Z,87.71
2022-11-20T19:12:40.482Z,87.66
2022-11-20T19:15:09.358Z,87.55
2022-11-20T19:17:38.359Z,87.57
2022-11-20T19:20:07.221Z,87.88
2022-11-20T19:22:35.776Z,87.91
2022-11-20T19:25:04.358Z,87.81
2022-11-20T19:27:32.586Z,87.76
2022-11-20T19:30:03.785Z,87.83
2022-11-20T19:32:32.746Z,87.72
2022-11-20T19:35:01.331Z,87.87
2022-11-20T19:37:30.280Z,87.70
2022-11-20T19:39:59.828Z,88.00
2022-11-20T19:42:28.059Z,87.98
2022-11-20T19:44:58.154Z,87.87
2022-11-20T19:47:46.026Z,88.09
2022-11-20T19:50:16.009Z,88.05
2022-11-20T19:52:44.114Z,87.92
2022-11-20T19:55:12.133Z,88.09
2022-11-20T19:57:40.376Z,88.17
2022-11-20T20:00:09.405Z,88.46
2022-11-20T20:02:37.592Z,88.52
2022-11-20T20:05:06.095Z,88.70
2022-11-20T20:07:34.268Z,88.83
2022-11-20T20:10:02.376Z,89.04
2022-11-20T20:12:30.510Z,88.97
2022-11-20T20:14:58.500Z,89.15
2022-11-20T20:17:26.576Z,89.12
2022-11-20T20:19:54.613Z,89.42
2022-11-20T20:22:22.773Z,89.49
2022-11-20T20:24:52.289Z,89.22
2022-11-20T20:27:20.426Z,89.54
2022-11-20T20:29:48.829Z,89.60
2022-11-20T20:32:17.380Z,89.77
2022-11-20T20:34:45.441Z,89.79
2022-11-20T20:37:13.509Z,90.33
2022-11-20T20:39:41.606Z,90.37
2022-11-20T20:42:10.415Z,90.53
2022-11-20T20:44:57.484Z,90.24
2022-11-20T20:47:31.423Z,90.41
2022-11-20T20:49:59.624Z,90.25
2022-11-20T20:52:27.678Z,90.58
2022-11-20T20:54:56.012Z,90.39
2022-11-20T20:57:24.656Z,90.15
2022-11-20T20:59:52.764Z,90.80
2022-11-20T21:02:25.355Z,90.15
2022-11-20T21:04:54.214Z,90.29
2022-11-20T21:07:22.917Z,90.80
2022-11-20T21:09:51.106Z,90.66
2022-11-20T21:12:22.596Z,91.07
2022-11-20T21:14:50.597Z,90.94
2022-11-20T21:17:18.742Z,90.73
2022-11-20T21:19:46.753Z,90.82
2022-11-20T21:22:14.959Z,91.01
2022-11-20T21:24:43.583Z,91.42
2022-11-20T21:27:11.738Z,91.16
2022-11-20T21:29:39.742Z,91.81
2022-11-20T21:32:07.953Z,91.94
2022-11-20T21:34:36.128Z,91.95
2022-11-20T21:37:05.843Z,91.40
2022-11-20T21:39:34.495Z,91.53
2022-11-20T21:42:02.636Z,91.82
2022-11-20T21:44:35.113Z,91.65
2022-11-20T21:47:03.222Z,91.73
2022-11-20T21:49:31.241Z,91.49
2022-11-20T21:51:59.308Z,92.25
2022-11-20T21:54:27.550Z,92.13
2022-11-20T21:56:55.866Z,92.07
2022-11-20T21:59:24.096Z,92.19
2022-11-20T22:01:52.350Z,92.27
2022-11-20T22:04:21.625Z,92.39
2022-11-20T22:06:49.928Z,91.98
2022-11-20T22:09:18.004Z,92.51
2022-11-20T22:11:46.745Z,92.07
2022-11-20T22:14:21.004Z,91.77
2022-11-20T22:16:51.516Z,92.03
2022-11-20T22:19:21.579Z,91.97
2022-11-20T22:21:50.857Z,92.27
2022-11-20T22:24:20.478Z,92.27
2022-11-20T22:26:49.136Z,92.09
2022-11-20T22:29:21.033Z,92.11
2022-11-20T22:31:52.200Z,92.22
2022-11-20T22:34:20.336Z,91.63
2022-11-20T22:36:48.444Z,92.17
2022-11-20T22:39:16.700Z,92.01
2022-11-20T22:41:44.815Z,91.78
2022-11-20T22:44:14.378Z,91.72
2022-11-20T22:46:42.787Z,91.86
2022-11-20T22:49:10.932Z,91.91
2022-11-20T22:51:41.106Z,91.86
2022-11-20T22:54:12.031Z,91.78
2022-11-20T22:56:41.280Z,92.14
2022-11-20T22:59:09.579Z,92.32
2022-11-20T23:01:38.985Z,92.06
2022-11-20T23:04:10.705Z,91.86
2022-11-20T23:06:39.169Z,92.27
2022-11-20T23:09:08.368Z,92.35
2022-11-20T23:11:36.916Z,92.46
2022-11-20T23:14:13.336Z,92.74
2022-11-20T23:16:41.892Z,92.64
2022-11-20T23:19:13.049Z,92.52
2022-11-20T23:21:42.360Z,92.75
2022-11-20T23:24:11.004Z,92.34
2022-11-20T23:26:41.087Z,92.78
2022-11-20T23:29:09.228Z,92.45
2022-11-20T23:31:37.535Z,92.40
2022-11-20T23:34:05.656Z,92.65
2022-11-20T23:36:33.889Z,92.50
2022-11-20T23:39:01.961Z,92.82
2022-11-20T23:41:30.099Z,92.95
2022-11-20T23:43:58.191Z,93.01
2022-11-20T23:46:26.365Z,92.98
2022-11-20T23:48:54.422Z,92.98
2022-11-20T23:51:22.534Z,92.90
2022-11-20T23:53:50.585Z,93.22
2022-11-20T23:56:19.335Z,92.91
2022-11-20T23:58:47.444Z,93.00
